Strona główna
METAR-TAF:

METAR-TAF

Lotnisko :

Port lotniczy Jönköping

Jönköping, Szwecja

Szerokość geograficzna: 57-46N, Długość geograficzna: 014-05E, wysokość: 226 m

Aktualna obserwacja pogody

Raport powstał 17 minut temu, godzina 15:20 UTC
Wiatr 10 kt od północ
Temperatura 7°C
Wilgotność 53%
Ciśnienie 1019 hPa
Widzialność 10 km lub więcej

METAR: ESGJ 281520Z AUTO 01010KT 9999 BKN041/// 07/M02 Q1019

czas: 16:37 (15:37 UTC)

Prognoza

Raport powstał 28 godziny i 7 minut temu, godzina 11:30 UTC
Prognoza ważna od 27 godzina 12 UTC do 27 godzina 21 UTC
Wiatr 5 kt od zachodnio-południowy zachód
Widzialność 10 km lub więcej
Brak chmur poniżej 1500 m i brak chmur cumulonimbus

TAF: ESGJ 271130Z 2712/2721 24005KT CAVOK

Obserwacja i prognoza pogody dla ponad 4000 lotnisk (raport METAR i TAF).

Dostępne stacje oznaczono żółtymi i czerwonymi punktami na mapie.

Najedź kursorem aby zobaczyć nazwę stacji.

Kliknij aby zobaczyć obserwacje i prognozy pogody.

Aby zmienić mapę: kliknij na zielony przycisk z czarnym krzyżykiem, aby powiększyć; na zielony przycisk z myślnikiem, aby pomniejszyć; na zielone strzałki, aby przejść do map sąsiednich.


METAR-TAF: